Aviation Digital Data Service (ADDS)

Output produced by METARs form (1358 UTC 02 September 2014)
found at http://aviationweather.gov/adds/metars/
 
KGFL 021345Z 0214/0312 20003KT P6SM SCT050 SCT100 
     FM021600 20007KT P6SM VCSH BKN060 
     PROB30 0223/0302 3SM -TSRA BR OVC025CB 
     FM030200 25005KT P6SM VCSH BKN060 
     FM030700 24003KT 2SM BR BKN003